sensor_id;sensor_type;location;lat;lon;timestamp;temperature;humidity
17807;DHT22;9027;48.938;9.182;2022-08-19T00:01:04;22.50;99.90
17807;DHT22;9027;48.938;9.182;2022-08-19T00:02:36;22.60;99.90
17807;DHT22;9027;48.938;9.182;2022-08-19T00:04:11;22.60;99.90
17807;DHT22;9027;48.938;9.182;2022-08-19T00:05:43;22.60;99.90
17807;DHT22;9027;48.938;9.182;2022-08-19T00:07:16;22.60;99.90
17807;DHT22;9027;48.938;9.182;2022-08-19T00:08:47;22.60;99.90
17807;DHT22;9027;48.938;9.182;2022-08-19T00:10:21;22.60;99.90
17807;DHT22;9027;48.938;9.182;2022-08-19T00:12:02;22.60;99.90
17807;DHT22;9027;48.938;9.182;2022-08-19T00:13:36;22.60;99.90
17807;DHT22;9027;48.938;9.182;2022-08-19T00:15:12;22.60;99.90
17807;DHT22;9027;48.938;9.182;2022-08-19T00:16:46;22.60;99.90
17807;DHT22;9027;48.938;9.182;2022-08-19T00:18:18;22.60;99.90
17807;DHT22;9027;48.938;9.182;2022-08-19T00:19:50;22.60;99.90
17807;DHT22;9027;48.938;9.182;2022-08-19T00:21:22;22.60;99.90
17807;DHT22;9027;48.938;9.182;2022-08-19T00:22:53;22.50;99.90
17807;DHT22;9027;48.938;9.182;2022-08-19T00:24:26;22.50;99.90
17807;DHT22;9027;48.938;9.182;2022-08-19T00:25:59;22.50;99.90
17807;DHT22;9027;48.938;9.182;2022-08-19T00:27:31;22.60;99.90
17807;DHT22;9027;48.938;9.182;2022-08-19T00:29:07;22.50;99.90
17807;DHT22;9027;48.938;9.182;2022-08-19T00:30:39;22.50;99.90
17807;DHT22;9027;48.938;9.182;2022-08-19T00:32:12;22.40;99.90
17807;DHT22;9027;48.938;9.182;2022-08-19T00:33:43;22.40;99.90
17807;DHT22;9027;48.938;9.182;2022-08-19T00:35:14;22.40;99.90
17807;DHT22;9027;48.938;9.182;2022-08-19T00:36:48;22.40;99.90
17807;DHT22;9027;48.938;9.182;2022-08-19T00:38:19;22.50;99.90
17807;DHT22;9027;48.938;9.182;2022-08-19T00:39:53;22.50;99.90
17807;DHT22;9027;48.938;9.182;2022-08-19T00:41:26;22.50;99.90
17807;DHT22;9027;48.938;9.182;2022-08-19T00:42:57;22.50;99.90
17807;DHT22;9027;48.938;9.182;2022-08-19T00:44:30;22.50;99.90
17807;DHT22;9027;48.938;9.182;2022-08-19T00:46:04;22.50;99.90
17807;DHT22;9027;48.938;9.182;2022-08-19T00:47:35;22.50;99.90
17807;DHT22;9027;48.938;9.182;2022-08-19T00:49:11;22.50;99.90
17807;DHT22;9027;48.938;9.182;2022-08-19T00:50:45;22.50;99.90
17807;DHT22;9027;48.938;9.182;2022-08-19T00:52:22;22.50;99.90
17807;DHT22;9027;48.938;9.182;2022-08-19T00:53:55;22.50;99.90
17807;DHT22;9027;48.938;9.182;2022-08-19T00:55:28;22.50;99.90
17807;DHT22;9027;48.938;9.182;2022-08-19T00:57:02;22.50;99.90
17807;DHT22;9027;48.938;9.182;2022-08-19T00:58:36;22.50;99.90
17807;DHT22;9027;48.938;9.182;2022-08-19T01:00:12;22.40;99.90
17807;DHT22;9027;48.938;9.182;2022-08-19T01:01:47;22.40;99.90
17807;DHT22;9027;48.938;9.182;2022-08-19T01:03:20;22.40;99.90
17807;DHT22;9027;48.938;9.182;2022-08-19T01:04:52;22.30;99.90
17807;DHT22;9027;48.938;9.182;2022-08-19T01:06:24;22.20;99.90
17807;DHT22;9027;48.938;9.182;2022-08-19T01:07:59;22.10;99.90
17807;DHT22;9027;48.938;9.182;2022-08-19T01:09:31;22.10;99.90
17807;DHT22;9027;48.938;9.182;2022-08-19T01:11:03;22.20;99.90
17807;DHT22;9027;48.938;9.182;2022-08-19T01:12:41;22.10;99.90
17807;DHT22;9027;48.938;9.182;2022-08-19T01:14:13;22.20;99.90
17807;DHT22;9027;48.938;9.182;2022-08-19T01:15:50;22.20;99.90
17807;DHT22;9027;48.938;9.182;2022-08-19T01:17:24;22.30;99.90
17807;DHT22;9027;48.938;9.182;2022-08-19T01:18:56;22.30;99.90
17807;DHT22;9027;48.938;9.182;2022-08-19T01:20:27;22.40;99.90
17807;DHT22;9027;48.938;9.182;2022-08-19T01:22:03;22.40;99.90
17807;DHT22;9027;48.938;9.182;2022-08-19T01:23:38;22.30;99.90
17807;DHT22;9027;48.938;9.182;2022-08-19T01:25:20;22.30;99.90
17807;DHT22;9027;48.938;9.182;2022-08-19T01:26:53;22.40;99.90
17807;DHT22;9027;48.938;9.182;2022-08-19T01:28:27;22.40;99.90
17807;DHT22;9027;48.938;9.182;2022-08-19T01:29:58;22.50;99.90
17807;DHT22;9027;48.938;9.182;2022-08-19T01:31:30;22.50;99.90
17807;DHT22;9027;48.938;9.182;2022-08-19T01:33:02;22.40;99.90
17807;DHT22;9027;48.938;9.182;2022-08-19T01:34:35;22.30;99.90
17807;DHT22;9027;48.938;9.182;2022-08-19T01:36:11;22.30;99.90
17807;DHT22;9027;48.938;9.182;2022-08-19T01:37:46;22.30;99.90
17807;DHT22;9027;48.938;9.182;2022-08-19T01:39:24;22.30;99.90
17807;DHT22;9027;48.938;9.182;2022-08-19T01:40:56;22.30;99.90
17807;DHT22;9027;48.938;9.182;2022-08-19T01:42:29;22.30;99.90
17807;DHT22;9027;48.938;9.182;2022-08-19T01:44:03;22.30;99.90
17807;DHT22;9027;48.938;9.182;2022-08-19T01:45:35;22.20;99.90
17807;DHT22;9027;48.938;9.182;2022-08-19T01:47:10;22.20;99.90
17807;DHT22;9027;48.938;9.182;2022-08-19T01:48:43;22.20;99.90
17807;DHT22;9027;48.938;9.182;2022-08-19T01:50:14;22.20;99.90
17807;DHT22;9027;48.938;9.182;2022-08-19T01:51:47;22.20;99.90
17807;DHT22;9027;48.938;9.182;2022-08-19T01:53:20;22.10;99.90
17807;DHT22;9027;48.938;9.182;2022-08-19T01:54:53;22.10;99.90
17807;DHT22;9027;48.938;9.182;2022-08-19T01:56:25;22.10;99.90
17807;DHT22;9027;48.938;9.182;2022-08-19T01:58:00;22.10;99.90
17807;DHT22;9027;48.938;9.182;2022-08-19T01:59:33;22.10;99.90
17807;DHT22;9027;48.938;9.182;2022-08-19T02:01:07;22.00;99.90
17807;DHT22;9027;48.938;9.182;2022-08-19T02:02:38;22.00;99.90
17807;DHT22;9027;48.938;9.182;2022-08-19T02:04:10;21.90;99.90
17807;DHT22;9027;48.938;9.182;2022-08-19T02:05:43;22.00;99.90
17807;DHT22;9027;48.938;9.182;2022-08-19T02:07:19;22.00;99.90
17807;DHT22;9027;48.938;9.182;2022-08-19T02:08:51;22.00;99.90
17807;DHT22;9027;48.938;9.182;2022-08-19T02:10:25;22.00;99.90
17807;DHT22;9027;48.938;9.182;2022-08-19T02:11:57;22.00;99.90
17807;DHT22;9027;48.938;9.182;2022-08-19T02:13:30;22.00;99.90
17807;DHT22;9027;48.938;9.182;2022-08-19T02:15:03;22.00;99.90
17807;DHT22;9027;48.938;9.182;2022-08-19T02:16:36;22.00;99.90
17807;DHT22;9027;48.938;9.182;2022-08-19T02:18:08;22.00;99.90
17807;DHT22;9027;48.938;9.182;2022-08-19T02:19:41;22.00;99.90
17807;DHT22;9027;48.938;9.182;2022-08-19T02:21:13;22.00;99.90
17807;DHT22;9027;48.938;9.182;2022-08-19T02:22:44;22.10;99.90
17807;DHT22;9027;48.938;9.182;2022-08-19T02:24:16;22.00;99.90
17807;DHT22;9027;48.938;9.182;2022-08-19T02:25:49;21.90;99.90
17807;DHT22;9027;48.938;9.182;2022-08-19T02:27:21;21.90;99.90
17807;DHT22;9027;48.938;9.182;2022-08-19T02:28:54;21.80;99.90
17807;DHT22;9027;48.938;9.182;2022-08-19T02:30:26;21.80;99.90
17807;DHT22;9027;48.938;9.182;2022-08-19T02:31:57;21.80;99.90
17807;DHT22;9027;48.938;9.182;2022-08-19T02:33:29;21.80;99.90
17807;DHT22;9027;48.938;9.182;2022-08-19T02:35:02;21.70;99.90
17807;DHT22;9027;48.938;9.182;2022-08-19T02:36:34;21.70;99.90
17807;DHT22;9027;48.938;9.182;2022-08-19T02:38:05;21.80;99.90
17807;DHT22;9027;48.938;9.182;2022-08-19T02:39:55;21.80;99.90
17807;DHT22;9027;48.938;9.182;2022-08-19T02:41:31;21.80;99.90
17807;DHT22;9027;48.938;9.182;2022-08-19T02:43:04;21.70;99.90
17807;DHT22;9027;48.938;9.182;2022-08-19T02:44:36;21.70;99.90
17807;DHT22;9027;48.938;9.182;2022-08-19T02:46:13;21.70;99.90
17807;DHT22;9027;48.938;9.182;2022-08-19T02:47:44;21.70;99.90
17807;DHT22;9027;48.938;9.182;2022-08-19T02:49:16;21.60;99.90
17807;DHT22;9027;48.938;9.182;2022-08-19T02:50:50;21.60;99.90
17807;DHT22;9027;48.938;9.182;2022-08-19T02:52:23;21.60;99.90
17807;DHT22;9027;48.938;9.182;2022-08-19T02:53:54;21.60;99.90
17807;DHT22;9027;48.938;9.182;2022-08-19T02:55:26;21.60;99.90
17807;DHT22;9027;48.938;9.182;2022-08-19T02:56:58;21.60;99.90
17807;DHT22;9027;48.938;9.182;2022-08-19T02:58:30;21.60;99.90
17807;DHT22;9027;48.938;9.182;2022-08-19T03:00:04;21.60;99.90
17807;DHT22;9027;48.938;9.182;2022-08-19T03:01:36;21.60;99.90
17807;DHT22;9027;48.938;9.182;2022-08-19T03:03:08;21.60;99.90
17807;DHT22;9027;48.938;9.182;2022-08-19T03:04:39;21.60;99.90
17807;DHT22;9027;48.938;9.182;2022-08-19T03:06:12;21.60;99.90
17807;DHT22;9027;48.938;9.182;2022-08-19T03:07:44;21.60;99.90
17807;DHT22;9027;48.938;9.182;2022-08-19T03:09:18;21.60;99.90
17807;DHT22;9027;48.938;9.182;2022-08-19T03:10:50;21.60;99.90
17807;DHT22;9027;48.938;9.182;2022-08-19T03:12:24;21.60;99.90
17807;DHT22;9027;48.938;9.182;2022-08-19T03:13:57;21.60;99.90
17807;DHT22;9027;48.938;9.182;2022-08-19T03:15:30;21.60;99.90
17807;DHT22;9027;48.938;9.182;2022-08-19T03:17:02;21.60;99.90
17807;DHT22;9027;48.938;9.182;2022-08-19T03:18:34;21.70;99.90
17807;DHT22;9027;48.938;9.182;2022-08-19T03:20:06;21.70;99.90
17807;DHT22;9027;48.938;9.182;2022-08-19T03:21:38;21.70;99.90
17807;DHT22;9027;48.938;9.182;2022-08-19T03:23:11;21.70;99.90
17807;DHT22;9027;48.938;9.182;2022-08-19T03:24:43;21.70;99.90
17807;DHT22;9027;48.938;9.182;2022-08-19T03:26:15;21.70;99.90
17807;DHT22;9027;48.938;9.182;2022-08-19T03:27:47;21.70;99.90
17807;DHT22;9027;48.938;9.182;2022-08-19T03:29:19;21.70;99.90
17807;DHT22;9027;48.938;9.182;2022-08-19T03:30:57;21.70;99.90
17807;DHT22;9027;48.938;9.182;2022-08-19T03:32:29;21.70;99.90
17807;DHT22;9027;48.938;9.182;2022-08-19T03:34:01;21.70;99.90
17807;DHT22;9027;48.938;9.182;2022-08-19T03:35:32;21.70;99.90
17807;DHT22;9027;48.938;9.182;2022-08-19T03:37:10;21.70;99.90
17807;DHT22;9027;48.938;9.182;2022-08-19T03:38:44;21.70;99.90
17807;DHT22;9027;48.938;9.182;2022-08-19T03:40:16;21.70;99.90
17807;DHT22;9027;48.938;9.182;2022-08-19T03:41:52;21.70;99.90
17807;DHT22;9027;48.938;9.182;2022-08-19T03:43:27;21.70;99.90
17807;DHT22;9027;48.938;9.182;2022-08-19T03:44:59;21.70;99.90
17807;DHT22;9027;48.938;9.182;2022-08-19T03:46:32;21.70;99.90
17807;DHT22;9027;48.938;9.182;2022-08-19T03:48:04;21.70;99.90
17807;DHT22;9027;48.938;9.182;2022-08-19T03:49:35;21.70;99.90
17807;DHT22;9027;48.938;9.182;2022-08-19T03:51:14;21.80;99.90
17807;DHT22;9027;48.938;9.182;2022-08-19T03:52:48;21.70;99.90
17807;DHT22;9027;48.938;9.182;2022-08-19T03:54:23;21.70;99.90
17807;DHT22;9027;48.938;9.182;2022-08-19T03:55:55;21.70;99.90
17807;DHT22;9027;48.938;9.182;2022-08-19T03:57:28;21.60;99.90
17807;DHT22;9027;48.938;9.182;2022-08-19T03:59:04;21.60;99.90
17807;DHT22;9027;48.938;9.182;2022-08-19T04:00:35;21.60;99.90
17807;DHT22;9027;48.938;9.182;2022-08-19T04:02:09;21.60;99.90
17807;DHT22;9027;48.938;9.182;2022-08-19T04:03:41;21.60;99.90
17807;DHT22;9027;48.938;9.182;2022-08-19T04:05:13;21.60;99.90
17807;DHT22;9027;48.938;9.182;2022-08-19T04:06:45;21.50;99.90
17807;DHT22;9027;48.938;9.182;2022-08-19T04:08:17;21.50;99.90
17807;DHT22;9027;48.938;9.182;2022-08-19T04:09:50;21.40;99.90
17807;DHT22;9027;48.938;9.182;2022-08-19T04:11:26;21.40;99.90
17807;DHT22;9027;48.938;9.182;2022-08-19T04:12:57;21.40;99.90
17807;DHT22;9027;48.938;9.182;2022-08-19T04:14:31;21.50;99.90
17807;DHT22;9027;48.938;9.182;2022-08-19T04:16:04;21.50;99.90
17807;DHT22;9027;48.938;9.182;2022-08-19T04:17:35;21.50;99.90
17807;DHT22;9027;48.938;9.182;2022-08-19T04:19:07;21.50;99.90
17807;DHT22;9027;48.938;9.182;2022-08-19T04:20:43;21.50;99.90
17807;DHT22;9027;48.938;9.182;2022-08-19T04:22:15;21.50;99.90
17807;DHT22;9027;48.938;9.182;2022-08-19T04:23:49;21.50;99.90
17807;DHT22;9027;48.938;9.182;2022-08-19T04:25:20;21.50;99.90
17807;DHT22;9027;48.938;9.182;2022-08-19T04:26:53;21.50;99.90
17807;DHT22;9027;48.938;9.182;2022-08-19T04:28:25;21.50;99.90
17807;DHT22;9027;48.938;9.182;2022-08-19T04:29:58;21.60;99.90
17807;DHT22;9027;48.938;9.182;2022-08-19T04:31:31;21.60;99.90
17807;DHT22;9027;48.938;9.182;2022-08-19T04:33:05;21.60;99.90
17807;DHT22;9027;48.938;9.182;2022-08-19T04:34:37;21.60;99.90
17807;DHT22;9027;48.938;9.182;2022-08-19T04:36:16;21.50;99.90
17807;DHT22;9027;48.938;9.182;2022-08-19T04:37:47;21.50;99.90
17807;DHT22;9027;48.938;9.182;2022-08-19T04:39:23;21.50;99.90
17807;DHT22;9027;48.938;9.182;2022-08-19T04:41:16;21.40;99.90
17807;DHT22;9027;48.938;9.182;2022-08-19T04:43:05;21.50;99.90
17807;DHT22;9027;48.938;9.182;2022-08-19T04:44:36;21.40;99.90
17807;DHT22;9027;48.938;9.182;2022-08-19T04:46:11;21.40;99.90
17807;DHT22;9027;48.938;9.182;2022-08-19T04:47:43;21.30;99.90
17807;DHT22;9027;48.938;9.182;2022-08-19T04:49:17;21.30;99.90
17807;DHT22;9027;48.938;9.182;2022-08-19T04:50:49;21.40;99.90
17807;DHT22;9027;48.938;9.182;2022-08-19T04:52:21;21.40;99.90
17807;DHT22;9027;48.938;9.182;2022-08-19T04:53:53;21.40;99.90
17807;DHT22;9027;48.938;9.182;2022-08-19T04:55:25;21.40;99.90
17807;DHT22;9027;48.938;9.182;2022-08-19T04:56:57;21.40;99.90
17807;DHT22;9027;48.938;9.182;2022-08-19T04:58:29;21.50;99.90
17807;DHT22;9027;48.938;9.182;2022-08-19T05:00:02;21.40;99.90
17807;DHT22;9027;48.938;9.182;2022-08-19T05:01:36;21.40;99.90
17807;DHT22;9027;48.938;9.182;2022-08-19T05:03:08;21.40;99.90
17807;DHT22;9027;48.938;9.182;2022-08-19T05:04:40;21.40;99.90
17807;DHT22;9027;48.938;9.182;2022-08-19T05:06:15;21.40;99.90
17807;DHT22;9027;48.938;9.182;2022-08-19T05:07:47;21.40;99.90
17807;DHT22;9027;48.938;9.182;2022-08-19T05:09:18;21.40;99.90
17807;DHT22;9027;48.938;9.182;2022-08-19T05:10:52;21.40;99.90
17807;DHT22;9027;48.938;9.182;2022-08-19T05:12:24;21.40;99.90
17807;DHT22;9027;48.938;9.182;2022-08-19T05:13:58;21.50;99.90
17807;DHT22;9027;48.938;9.182;2022-08-19T05:15:30;21.50;99.90
17807;DHT22;9027;48.938;9.182;2022-08-19T05:17:03;21.60;99.90
17807;DHT22;9027;48.938;9.182;2022-08-19T05:18:35;21.60;99.90
17807;DHT22;9027;48.938;9.182;2022-08-19T05:20:24;21.60;99.90
17807;DHT22;9027;48.938;9.182;2022-08-19T05:22:14;21.60;99.90
17807;DHT22;9027;48.938;9.182;2022-08-19T05:24:00;21.50;99.90
17807;DHT22;9027;48.938;9.182;2022-08-19T05:25:32;21.50;99.90
17807;DHT22;9027;48.938;9.182;2022-08-19T05:27:04;21.50;99.90
17807;DHT22;9027;48.938;9.182;2022-08-19T05:28:37;21.50;99.90
17807;DHT22;9027;48.938;9.182;2022-08-19T05:30:10;21.50;99.90
17807;DHT22;9027;48.938;9.182;2022-08-19T05:31:42;21.50;99.90
17807;DHT22;9027;48.938;9.182;2022-08-19T05:33:15;21.50;99.90
17807;DHT22;9027;48.938;9.182;2022-08-19T05:34:47;21.50;99.90
17807;DHT22;9027;48.938;9.182;2022-08-19T05:36:19;21.50;99.90
17807;DHT22;9027;48.938;9.182;2022-08-19T05:37:50;21.50;99.90
17807;DHT22;9027;48.938;9.182;2022-08-19T05:39:27;21.50;99.90
17807;DHT22;9027;48.938;9.182;2022-08-19T05:41:00;21.50;99.90
17807;DHT22;9027;48.938;9.182;2022-08-19T05:42:31;21.50;99.90
17807;DHT22;9027;48.938;9.182;2022-08-19T05:44:04;21.50;99.90
17807;DHT22;9027;48.938;9.182;2022-08-19T05:45:40;21.50;99.90
17807;DHT22;9027;48.938;9.182;2022-08-19T05:47:13;21.60;99.90
17807;DHT22;9027;48.938;9.182;2022-08-19T05:48:47;21.60;99.90
17807;DHT22;9027;48.938;9.182;2022-08-19T05:50:19;21.50;99.90
17807;DHT22;9027;48.938;9.182;2022-08-19T05:51:51;21.50;99.90
17807;DHT22;9027;48.938;9.182;2022-08-19T05:53:23;21.60;99.90
17807;DHT22;9027;48.938;9.182;2022-08-19T05:54:55;21.50;99.90
17807;DHT22;9027;48.938;9.182;2022-08-19T05:56:27;21.50;99.90
17807;DHT22;9027;48.938;9.182;2022-08-19T05:57:58;21.50;99.90
17807;DHT22;9027;48.938;9.182;2022-08-19T05:59:32;21.50;99.90
17807;DHT22;9027;48.938;9.182;2022-08-19T06:01:10;21.50;99.90
17807;DHT22;9027;48.938;9.182;2022-08-19T06:02:41;21.50;99.90
17807;DHT22;9027;48.938;9.182;2022-08-19T06:04:14;21.60;99.90
17807;DHT22;9027;48.938;9.182;2022-08-19T06:05:47;21.50;99.90
17807;DHT22;9027;48.938;9.182;2022-08-19T06:07:19;21.40;99.90
17807;DHT22;9027;48.938;9.182;2022-08-19T06:08:51;21.40;99.90
17807;DHT22;9027;48.938;9.182;2022-08-19T06:10:23;21.50;99.90
17807;DHT22;9027;48.938;9.182;2022-08-19T06:11:57;21.40;99.90
17807;DHT22;9027;48.938;9.182;2022-08-19T06:13:30;21.40;99.90
17807;DHT22;9027;48.938;9.182;2022-08-19T06:15:05;21.40;99.90
17807;DHT22;9027;48.938;9.182;2022-08-19T06:16:39;21.40;99.90
17807;DHT22;9027;48.938;9.182;2022-08-19T06:18:11;21.40;99.90
17807;DHT22;9027;48.938;9.182;2022-08-19T06:19:44;21.40;99.90
17807;DHT22;9027;48.938;9.182;2022-08-19T06:21:17;21.40;99.90
17807;DHT22;9027;48.938;9.182;2022-08-19T06:22:49;21.40;99.90
17807;DHT22;9027;48.938;9.182;2022-08-19T06:24:23;21.40;99.90
17807;DHT22;9027;48.938;9.182;2022-08-19T06:25:56;21.30;99.90
17807;DHT22;9027;48.938;9.182;2022-08-19T06:27:28;21.30;99.90
17807;DHT22;9027;48.938;9.182;2022-08-19T06:29:03;21.40;99.90
17807;DHT22;9027;48.938;9.182;2022-08-19T06:30:36;21.30;99.90
17807;DHT22;9027;48.938;9.182;2022-08-19T06:32:08;21.30;99.90
17807;DHT22;9027;48.938;9.182;2022-08-19T06:33:41;21.40;99.90
17807;DHT22;9027;48.938;9.182;2022-08-19T06:35:14;21.30;99.90
17807;DHT22;9027;48.938;9.182;2022-08-19T06:36:48;21.40;99.90
17807;DHT22;9027;48.938;9.182;2022-08-19T06:38:21;21.40;99.90
17807;DHT22;9027;48.938;9.182;2022-08-19T06:39:53;21.50;99.90
17807;DHT22;9027;48.938;9.182;2022-08-19T06:41:25;21.50;99.90
17807;DHT22;9027;48.938;9.182;2022-08-19T06:42:57;21.50;99.90
17807;DHT22;9027;48.938;9.182;2022-08-19T06:44:33;21.60;99.90
17807;DHT22;9027;48.938;9.182;2022-08-19T06:46:10;21.60;99.90
17807;DHT22;9027;48.938;9.182;2022-08-19T06:47:43;21.60;99.90
17807;DHT22;9027;48.938;9.182;2022-08-19T06:49:17;21.50;99.90
17807;DHT22;9027;48.938;9.182;2022-08-19T06:50:51;21.60;99.90
17807;DHT22;9027;48.938;9.182;2022-08-19T06:52:23;21.50;99.90
17807;DHT22;9027;48.938;9.182;2022-08-19T06:53:55;21.60;99.90
17807;DHT22;9027;48.938;9.182;2022-08-19T06:55:27;21.60;99.90
17807;DHT22;9027;48.938;9.182;2022-08-19T06:57:00;21.60;99.90
17807;DHT22;9027;48.938;9.182;2022-08-19T06:58:33;21.70;99.90
17807;DHT22;9027;48.938;9.182;2022-08-19T07:00:06;21.70;99.90
17807;DHT22;9027;48.938;9.182;2022-08-19T07:01:42;21.70;99.90
17807;DHT22;9027;48.938;9.182;2022-08-19T07:03:16;21.70;99.90
17807;DHT22;9027;48.938;9.182;2022-08-19T07:04:48;21.70;99.90
17807;DHT22;9027;48.938;9.182;2022-08-19T07:06:21;21.70;99.90
17807;DHT22;9027;48.938;9.182;2022-08-19T07:07:53;21.80;99.90
17807;DHT22;9027;48.938;9.182;2022-08-19T07:09:25;21.80;99.90
17807;DHT22;9027;48.938;9.182;2022-08-19T07:10:58;21.80;99.90
17807;DHT22;9027;48.938;9.182;2022-08-19T07:12:31;21.80;99.90
17807;DHT22;9027;48.938;9.182;2022-08-19T07:14:04;21.90;99.90
17807;DHT22;9027;48.938;9.182;2022-08-19T07:15:37;21.80;99.90
17807;DHT22;9027;48.938;9.182;2022-08-19T07:17:11;21.80;99.90
17807;DHT22;9027;48.938;9.182;2022-08-19T07:18:43;21.70;99.90
17807;DHT22;9027;48.938;9.182;2022-08-19T07:20:15;21.70;99.90
17807;DHT22;9027;48.938;9.182;2022-08-19T07:21:50;21.70;99.90
17807;DHT22;9027;48.938;9.182;2022-08-19T07:23:23;21.80;99.90
17807;DHT22;9027;48.938;9.182;2022-08-19T07:24:55;21.80;99.90
17807;DHT22;9027;48.938;9.182;2022-08-19T07:26:30;21.90;99.90
17807;DHT22;9027;48.938;9.182;2022-08-19T07:28:03;21.80;99.90
17807;DHT22;9027;48.938;9.182;2022-08-19T07:29:35;21.90;99.90
17807;DHT22;9027;48.938;9.182;2022-08-19T07:31:09;21.90;99.90
17807;DHT22;9027;48.938;9.182;2022-08-19T07:32:41;21.90;99.90
17807;DHT22;9027;48.938;9.182;2022-08-19T07:34:14;21.90;99.90
17807;DHT22;9027;48.938;9.182;2022-08-19T07:35:46;22.00;99.90
17807;DHT22;9027;48.938;9.182;2022-08-19T07:37:19;22.00;99.90
17807;DHT22;9027;48.938;9.182;2022-08-19T07:38:52;22.00;99.90
17807;DHT22;9027;48.938;9.182;2022-08-19T07:40:25;22.00;99.90
17807;DHT22;9027;48.938;9.182;2022-08-19T07:42:00;22.00;99.90
17807;DHT22;9027;48.938;9.182;2022-08-19T07:43:32;22.00;99.90
17807;DHT22;9027;48.938;9.182;2022-08-19T07:45:06;21.90;99.90
17807;DHT22;9027;48.938;9.182;2022-08-19T07:46:41;21.90;99.90
17807;DHT22;9027;48.938;9.182;2022-08-19T07:48:14;21.80;99.90
17807;DHT22;9027;48.938;9.182;2022-08-19T07:49:46;21.80;99.90
17807;DHT22;9027;48.938;9.182;2022-08-19T07:51:20;21.80;99.90
17807;DHT22;9027;48.938;9.182;2022-08-19T07:52:54;21.80;99.90
17807;DHT22;9027;48.938;9.182;2022-08-19T07:54:29;21.80;99.90
17807;DHT22;9027;48.938;9.182;2022-08-19T07:56:02;21.80;99.90
17807;DHT22;9027;48.938;9.182;2022-08-19T07:57:34;21.70;99.90
17807;DHT22;9027;48.938;9.182;2022-08-19T07:59:07;21.70;99.90
17807;DHT22;9027;48.938;9.182;2022-08-19T08:00:40;21.60;99.90
17807;DHT22;9027;48.938;9.182;2022-08-19T08:02:12;21.60;99.90
17807;DHT22;9027;48.938;9.182;2022-08-19T08:03:44;21.60;99.90
17807;DHT22;9027;48.938;9.182;2022-08-19T08:05:33;21.60;99.90
17807;DHT22;9027;48.938;9.182;2022-08-19T08:07:23;21.60;99.90
17807;DHT22;9027;48.938;9.182;2022-08-19T08:09:15;21.60;99.90
17807;DHT22;9027;48.938;9.182;2022-08-19T08:10:51;21.60;99.90
17807;DHT22;9027;48.938;9.182;2022-08-19T08:12:26;21.60;99.90
17807;DHT22;9027;48.938;9.182;2022-08-19T08:13:59;21.60;99.90
17807;DHT22;9027;48.938;9.182;2022-08-19T08:15:31;21.50;99.90
17807;DHT22;9027;48.938;9.182;2022-08-19T08:17:04;21.50;99.90
17807;DHT22;9027;48.938;9.182;2022-08-19T08:18:37;21.50;99.90
17807;DHT22;9027;48.938;9.182;2022-08-19T08:20:13;21.60;99.90
17807;DHT22;9027;48.938;9.182;2022-08-19T08:21:46;21.60;99.90
17807;DHT22;9027;48.938;9.182;2022-08-19T08:23:18;21.60;99.90
17807;DHT22;9027;48.938;9.182;2022-08-19T08:25:01;21.60;99.90
17807;DHT22;9027;48.938;9.182;2022-08-19T08:26:33;21.60;99.90
17807;DHT22;9027;48.938;9.182;2022-08-19T08:28:06;21.50;99.90
17807;DHT22;9027;48.938;9.182;2022-08-19T08:29:39;21.50;99.90
17807;DHT22;9027;48.938;9.182;2022-08-19T08:31:11;21.50;99.90
17807;DHT22;9027;48.938;9.182;2022-08-19T08:32:43;21.60;99.90
17807;DHT22;9027;48.938;9.182;2022-08-19T08:34:15;21.60;99.90
17807;DHT22;9027;48.938;9.182;2022-08-19T08:35:48;21.60;99.90
17807;DHT22;9027;48.938;9.182;2022-08-19T08:37:20;21.60;99.90
17807;DHT22;9027;48.938;9.182;2022-08-19T08:38:53;21.70;99.90
17807;DHT22;9027;48.938;9.182;2022-08-19T08:40:33;21.60;99.90
17807;DHT22;9027;48.938;9.182;2022-08-19T08:42:15;21.70;99.90
17807;DHT22;9027;48.938;9.182;2022-08-19T08:43:52;21.70;99.90
17807;DHT22;9027;48.938;9.182;2022-08-19T08:45:25;21.80;99.90
17807;DHT22;9027;48.938;9.182;2022-08-19T08:46:59;21.80;99.90
17807;DHT22;9027;48.938;9.182;2022-08-19T08:48:49;21.80;99.90
17807;DHT22;9027;48.938;9.182;2022-08-19T08:50:27;21.80;99.90
17807;DHT22;9027;48.938;9.182;2022-08-19T08:52:04;21.80;99.90
17807;DHT22;9027;48.938;9.182;2022-08-19T08:53:36;21.90;99.90
17807;DHT22;9027;48.938;9.182;2022-08-19T08:55:12;21.90;99.90
17807;DHT22;9027;48.938;9.182;2022-08-19T08:56:47;22.00;99.90
17807;DHT22;9027;48.938;9.182;2022-08-19T08:58:26;22.10;99.90
17807;DHT22;9027;48.938;9.182;2022-08-19T09:00:02;22.20;99.90
17807;DHT22;9027;48.938;9.182;2022-08-19T09:01:36;22.30;99.90
17807;DHT22;9027;48.938;9.182;2022-08-19T09:03:17;22.20;99.90
17807;DHT22;9027;48.938;9.182;2022-08-19T09:04:49;22.20;99.90
17807;DHT22;9027;48.938;9.182;2022-08-19T09:06:27;22.30;99.90
17807;DHT22;9027;48.938;9.182;2022-08-19T09:08:04;22.30;99.90
17807;DHT22;9027;48.938;9.182;2022-08-19T09:09:40;22.30;99.90
17807;DHT22;9027;48.938;9.182;2022-08-19T09:11:15;22.40;99.90
17807;DHT22;9027;48.938;9.182;2022-08-19T09:12:58;22.50;99.90
17807;DHT22;9027;48.938;9.182;2022-08-19T09:14:37;22.50;99.90
17807;DHT22;9027;48.938;9.182;2022-08-19T09:16:14;22.60;99.90
17807;DHT22;9027;48.938;9.182;2022-08-19T09:17:47;22.70;99.90
17807;DHT22;9027;48.938;9.182;2022-08-19T09:19:19;22.70;99.90
17807;DHT22;9027;48.938;9.182;2022-08-19T09:20:51;22.80;99.90
17807;DHT22;9027;48.938;9.182;2022-08-19T09:22:23;22.90;99.90
17807;DHT22;9027;48.938;9.182;2022-08-19T09:23:57;22.90;99.90
17807;DHT22;9027;48.938;9.182;2022-08-19T09:25:29;22.90;99.90
17807;DHT22;9027;48.938;9.182;2022-08-19T09:27:03;23.00;99.90
17807;DHT22;9027;48.938;9.182;2022-08-19T09:28:36;22.90;99.90
17807;DHT22;9027;48.938;9.182;2022-08-19T09:30:15;22.90;99.90
17807;DHT22;9027;48.938;9.182;2022-08-19T09:31:47;22.90;99.90
17807;DHT22;9027;48.938;9.182;2022-08-19T09:33:20;22.80;99.90
17807;DHT22;9027;48.938;9.182;2022-08-19T09:34:55;22.90;99.90
17807;DHT22;9027;48.938;9.182;2022-08-19T09:36:31;22.90;99.90
17807;DHT22;9027;48.938;9.182;2022-08-19T09:38:09;22.80;99.90
17807;DHT22;9027;48.938;9.182;2022-08-19T09:39:49;22.80;99.90
17807;DHT22;9027;48.938;9.182;2022-08-19T09:41:22;22.80;99.90
17807;DHT22;9027;48.938;9.182;2022-08-19T09:42:55;22.90;99.90
17807;DHT22;9027;48.938;9.182;2022-08-19T09:44:29;22.90;99.90
17807;DHT22;9027;48.938;9.182;2022-08-19T09:46:01;22.90;99.90
17807;DHT22;9027;48.938;9.182;2022-08-19T09:47:33;22.90;99.90
17807;DHT22;9027;48.938;9.182;2022-08-19T09:49:08;23.00;99.90
17807;DHT22;9027;48.938;9.182;2022-08-19T09:50:40;23.10;99.90
17807;DHT22;9027;48.938;9.182;2022-08-19T09:52:12;23.20;99.90
17807;DHT22;9027;48.938;9.182;2022-08-19T09:53:47;23.20;99.90
17807;DHT22;9027;48.938;9.182;2022-08-19T09:55:20;23.20;99.90
17807;DHT22;9027;48.938;9.182;2022-08-19T09:56:52;23.20;99.90
17807;DHT22;9027;48.938;9.182;2022-08-19T09:58:24;23.10;99.90
17807;DHT22;9027;48.938;9.182;2022-08-19T09:59:59;23.10;99.90
17807;DHT22;9027;48.938;9.182;2022-08-19T10:01:32;23.00;99.90